Time;durP1;ratioP1;P1;durP2;ratioP2;P2;SDS_P1;SDS_P2;PMS_P1;PMS_P2;Temp;Humidity;BMP_temperature;BMP_pressure;BME280_temperature;BME280_humidity;BME280_pressure;Samples;Min_cycle;Max_cycle;Signal;HPM_P1;HPM_P2
2021/10/14 00:00:39;;;;;;;;;43.75;35.75;;;;;12.32;48.18;102364.59;5101032;27;45244;-55
2021/10/14 00:03:09;;;;;;;;;39.00;35.50;;;;;12.30;48.18;102362.81;5101339;27;45304;-55
2021/10/14 00:05:34;;;;;;;;;45.50;37.00;;;;;12.26;48.19;102355.78;5082683;27;45302;-55
2021/10/14 00:08:00;;;;;;;;;40.00;34.25;;;;;12.26;48.28;102364.56;5100681;27;45382;-55
2021/10/14 00:10:27;;;;;;;;;39.25;35.00;;;;;12.21;48.19;102360.16;5100937;27;45462;-54
2021/10/14 00:12:52;;;;;;;;;40.25;33.75;;;;;12.20;48.25;102356.66;5101073;27;45267;-55
2021/10/14 00:15:18;;;;;;;;;36.50;32.50;;;;;12.19;48.40;102363.66;5100912;27;45625;-55
2021/10/14 00:17:43;;;;;;;;;40.00;33.75;;;;;12.17;48.64;102375.06;5100919;27;45370;-55
2021/10/14 00:20:09;;;;;;;;;41.25;37.00;;;;;12.16;48.50;102373.31;5100742;27;45505;-55
2021/10/14 00:22:35;;;;;;;;;47.00;38.75;;;;;12.12;48.57;102363.63;5100809;27;45291;-55
2021/10/14 00:25:00;;;;;;;;;48.75;38.75;;;;;12.08;48.52;102361.84;5100641;27;45663;-56
2021/10/14 00:27:25;;;;;;;;;43.25;36.00;;;;;12.10;48.41;102368.91;5100614;27;45390;-56
2021/10/14 00:29:51;;;;;;;;;47.00;38.00;;;;;12.08;48.58;102364.50;5100673;27;45177;-55
2021/10/14 00:32:16;;;;;;;;;41.50;35.50;;;;;12.05;48.57;102369.72;5082469;27;45247;-56
2021/10/14 00:34:41;;;;;;;;;45.00;36.00;;;;;12.03;48.68;102367.09;5100534;27;45427;-55
2021/10/14 00:37:07;;;;;;;;;52.25;41.25;;;;;12.00;48.67;102360.06;5100488;27;45574;-56
2021/10/14 00:39:32;;;;;;;;;50.50;40.50;;;;;12.00;48.61;102367.09;5100618;27;45313;-56
2021/10/14 00:41:58;;;;;;;;;49.50;38.00;;;;;11.98;48.71;102364.41;5100570;27;45255;-56
2021/10/14 00:44:23;;;;;;;;;41.50;36.75;;;;;11.94;48.75;102362.63;5081080;27;45187;-56
2021/10/14 00:46:54;;;;;;;;;42.75;36.00;;;;;11.94;48.66;102362.63;5100467;27;45536;-55
2021/10/14 00:49:20;;;;;;;;;47.25;38.25;;;;;11.92;48.73;102361.72;5100467;27;45489;-55
2021/10/14 00:51:46;;;;;;;;;44.75;38.25;;;;;11.86;48.81;102354.69;5100420;27;45260;-56
2021/10/14 00:54:13;;;;;;;;;42.75;36.75;;;;;11.89;48.88;102372.25;5082126;27;45957;-56
2021/10/14 00:56:40;;;;;;;;;43.25;36.00;;;;;11.87;48.86;102359.06;5100233;27;46580;-56
2021/10/14 00:59:06;;;;;;;;;39.75;34.75;;;;;11.85;48.91;102355.53;5081849;27;45307;-54
2021/10/14 01:01:31;;;;;;;;;35.50;33.50;;;;;11.84;49.00;102358.19;5100432;27;45405;-56
2021/10/14 01:03:57;;;;;;;;;40.75;33.75;;;;;11.82;48.96;102354.63;5078469;28;45412;-55
2021/10/14 01:06:22;;;;;;;;;38.00;34.50;;;;;11.81;48.85;102351.13;5093006;27;46266;-56
2021/10/14 01:08:48;;;;;;;;;43.75;37.50;;;;;11.79;49.04;102346.72;5081936;27;45366;-55
2021/10/14 01:11:13;;;;;;;;;44.50;35.00;;;;;11.77;48.87;102343.19;5100341;27;45468;-55
2021/10/14 01:13:38;;;;;;;;;44.75;36.25;;;;;11.75;49.12;102340.56;5100172;27;45356;-55
2021/10/14 01:16:04;;;;;;;;;41.50;36.00;;;;;11.74;49.13;102336.16;5081808;27;48178;-56
2021/10/14 01:18:30;;;;;;;;;45.50;36.00;;;;;11.70;49.20;102337.88;5081791;27;45768;-55
2021/10/14 01:20:56;;;;;;;;;41.75;35.75;;;;;11.69;49.21;102335.25;5100109;27;45287;-55
2021/10/14 01:23:21;;;;;;;;;41.50;35.50;;;;;11.69;49.16;102330.84;5081380;27;45206;-55
2021/10/14 01:25:47;;;;;;;;;44.00;35.00;;;;;11.66;49.43;102333.47;5091201;27;46001;-56
2021/10/14 01:28:14;;;;;;;;;39.75;34.00;;;;;11.65;49.24;102334.34;5081431;27;45343;-55
2021/10/14 01:30:40;;;;;;;;;35.25;33.00;;;;;11.64;49.27;102342.25;5095692;27;45441;-56
2021/10/14 01:33:06;;;;;;;;;34.75;31.50;;;;;11.61;48.97;102339.56;5099616;27;45347;-54
2021/10/14 01:35:31;;;;;;;;;34.50;32.25;;;;;11.59;49.24;102342.19;5099707;27;46181;-52
2021/10/14 01:37:56;;;;;;;;;38.75;34.25;;;;;11.58;49.31;102331.66;5099617;27;45375;-55
2021/10/14 01:40:22;;;;;;;;;36.25;33.00;;;;;11.55;49.30;102332.53;5099944;27;45395;-54
2021/10/14 01:42:47;;;;;;;;;34.75;32.50;;;;;11.54;49.40;102336.03;5099777;27;45346;-55
2021/10/14 01:45:13;;;;;;;;;37.75;30.25;;;;;11.51;49.37;102330.75;5099463;27;47221;-55
2021/10/14 01:47:38;;;;;;;;;33.50;32.00;;;;;11.50;49.32;102323.72;5099592;27;45429;-55
2021/10/14 01:50:06;;;;;;;;;53.75;44.00;;;;;11.47;49.33;102324.56;5100044;27;45265;-55
2021/10/14 01:52:31;;;;;;;;;52.75;40.75;;;;;11.43;49.28;102322.75;5081206;27;45315;-54
2021/10/14 01:54:57;;;;;;;;;56.75;42.75;;;;;11.44;49.48;102323.66;5100473;27;45348;-54
2021/10/14 01:57:22;;;;;;;;;48.50;40.75;;;;;11.42;49.48;102325.41;5102956;27;45299;-54
2021/10/14 01:59:47;;;;;;;;;52.75;38.75;;;;;11.38;49.77;102327.13;5103432;27;45203;-53
2021/10/14 02:02:13;;;;;;;;;52.75;42.00;;;;;11.36;49.44;102318.34;5103125;27;45212;-55
2021/10/14 02:04:38;;;;;;;;;52.75;40.50;;;;;11.34;49.48;102326.22;5103145;27;45611;-54
2021/10/14 02:07:03;;;;;;;;;51.00;42.00;;;;;11.30;49.52;102313.91;5084504;27;45216;-54
2021/10/14 02:09:29;;;;;;;;;46.00;38.00;;;;;11.31;49.57;102320.06;5103398;27;45551;-53
2021/10/14 02:11:54;;;;;;;;;49.00;38.25;;;;;11.29;49.50;102314.75;5102721;27;45362;-51
2021/10/14 02:14:19;;;;;;;;;41.25;35.50;;;;;11.25;49.58;102310.34;5102969;27;45398;-52
2021/10/14 02:16:45;;;;;;;;;49.75;38.50;;;;;11.25;49.46;102318.25;5102766;27;45257;-55
2021/10/14 02:19:10;;;;;;;;;49.75;40.25;;;;;11.22;49.61;102311.22;5103106;27;45283;-55
2021/10/14 02:21:35;;;;;;;;;47.25;39.25;;;;;11.22;49.68;102305.94;5102286;27;45302;-55
2021/10/14 02:24:01;;;;;;;;;48.00;41.00;;;;;11.21;49.57;102306.81;5102673;27;46009;-55
2021/10/14 02:26:26;;;;;;;;;48.50;39.00;;;;;11.21;49.72;102305.94;5102714;27;45320;-55
2021/10/14 02:28:52;;;;;;;;;43.25;37.00;;;;;11.18;49.73;102301.53;5102715;27;45316;-55
2021/10/14 02:31:17;;;;;;;;;38.50;35.25;;;;;11.16;49.66;102298.00;5102562;27;45295;-55
2021/10/14 02:33:43;;;;;;;;;52.00;41.75;;;;;11.16;49.63;102297.13;5102656;27;46462;-55
2021/10/14 02:36:08;;;;;;;;;35.50;30.25;;;;;11.13;49.73;102302.34;5102336;27;45399;-54
2021/10/14 02:38:34;;;;;;;;;45.75;36.75;;;;;11.14;49.59;102298.88;5102880;27;45245;-54
2021/10/14 02:41:00;;;;;;;;;41.50;36.75;;;;;11.11;50.01;102296.22;5083947;27;45223;-55
2021/10/14 02:43:25;;;;;;;;;47.25;37.00;;;;;11.12;49.82;102298.84;5097659;27;47139;-56
2021/10/14 02:45:51;;;;;;;;;42.25;37.75;;;;;11.11;50.05;102304.13;5100722;27;45492;-56
2021/10/14 02:48:16;;;;;;;;;43.75;37.25;;;;;11.11;49.96;102304.13;5102746;27;45232;-54
2021/10/14 02:50:41;;;;;;;;;44.75;37.00;;;;;11.10;50.01;102304.97;5083550;27;45247;-55
2021/10/14 02:53:06;;;;;;;;;41.75;35.50;;;;;11.08;50.00;102306.69;5102365;27;45206;-55
2021/10/14 02:55:32;;;;;;;;;39.50;34.75;;;;;11.08;50.08;102310.22;5102189;27;45432;-55
2021/10/14 02:57:57;;;;;;;;;42.00;35.25;;;;;11.08;50.05;102304.97;5102193;27;45234;-56
2021/10/14 03:00:23;;;;;;;;;46.75;38.00;;;;;11.06;50.14;102304.06;5101981;27;45219;-54
2021/10/14 03:02:48;;;;;;;;;41.75;37.75;;;;;11.04;50.32;102292.63;5102111;27;45228;-53
2021/10/14 03:05:13;;;;;;;;;31.25;25.00;;;;;11.04;50.10;102296.16;5102069;27;45423;-54
2021/10/14 03:07:39;;;;;;;;;43.50;37.25;;;;;11.02;50.01;102289.13;5101004;27;45442;-55
2021/10/14 03:10:05;;;;;;;;;48.25;38.00;;;;;11.03;50.32;102290.88;5083649;27;45366;-56
2021/10/14 03:12:30;;;;;;;;;45.50;37.50;;;;;11.01;50.24;102303.16;5101796;27;46361;-55
2021/10/14 03:14:55;;;;;;;;;51.25;38.00;;;;;11.01;50.20;102300.50;5101927;27;45247;-55
2021/10/14 03:17:21;;;;;;;;;47.00;36.75;;;;;11.00;50.35;102304.88;5102268;27;45273;-56
2021/10/14 03:19:46;;;;;;;;;26.00;23.00;;;;;10.99;50.28;102300.50;5101823;27;45680;-55
2021/10/14 03:22:11;;;;;;;;;41.25;35.25;;;;;10.98;50.37;102305.72;5101674;27;46254;-54
2021/10/14 03:24:37;;;;;;;;;45.25;34.75;;;;;10.97;50.28;102302.22;5101620;27;45398;-55
2021/10/14 03:27:02;;;;;;;;;45.75;37.75;;;;;10.95;50.48;102300.47;5101803;27;45283;-54
2021/10/14 03:29:28;;;;;;;;;43.25;37.00;;;;;10.94;50.39;102303.94;5101828;27;45327;-55
2021/10/14 03:31:53;;;;;;;;;49.00;37.75;;;;;10.91;50.59;102299.53;5101704;27;45474;-54
2021/10/14 03:34:18;;;;;;;;;39.50;36.00;;;;;10.90;50.61;102300.41;5101484;27;45341;-55
2021/10/14 03:36:43;;;;;;;;;39.00;35.00;;;;;10.91;50.51;102304.81;5101708;27;45315;-55
2021/10/14 03:39:09;;;;;;;;;44.00;34.75;;;;;10.91;50.53;102310.06;5101537;27;45283;-54
2021/10/14 03:41:34;;;;;;;;;48.50;39.00;;;;;10.88;50.59;102305.66;5101498;27;45215;-54
2021/10/14 03:43:59;;;;;;;;;48.00;36.00;;;;;10.87;50.46;102306.53;5100956;27;45504;-53
2021/10/14 03:46:25;;;;;;;;;43.25;35.25;;;;;10.87;50.55;102310.91;5083212;27;45396;-55
2021/10/14 03:48:50;;;;;;;;;41.00;33.00;;;;;10.84;50.49;102305.59;5082075;27;45420;-55
2021/10/14 03:51:15;;;;;;;;;43.75;37.25;;;;;10.83;50.52;102304.75;5101084;27;45466;-55
2021/10/14 03:53:41;;;;;;;;;47.50;38.25;;;;;10.83;50.69;102311.72;5101186;27;45203;-54
2021/10/14 03:56:06;;;;;;;;;42.25;36.00;;;;;10.81;50.64;102318.75;5083232;27;45245;-54
2021/10/14 03:58:31;;;;;;;;;39.50;35.25;;;;;10.79;50.66;102316.09;5101024;27;45246;-55
2021/10/14 04:00:57;;;;;;;;;41.50;36.50;;;;;10.78;50.58;102316.06;5082896;27;45317;-52
2021/10/14 04:03:22;;;;;;;;;44.00;37.50;;;;;10.77;50.68;102314.28;5082650;27;45456;-52
2021/10/14 04:05:48;;;;;;;;;43.00;36.00;;;;;10.76;50.77;102317.81;5082760;27;45365;-54
2021/10/14 04:08:13;;;;;;;;;45.50;36.75;;;;;10.73;50.67;102316.03;5101134;27;45442;-54
2021/10/14 04:10:38;;;;;;;;;42.50;35.75;;;;;10.71;50.91;102310.72;5101084;27;46249;-54
2021/10/14 04:13:05;;;;;;;;;43.25;35.00;;;;;10.70;50.88;102310.72;5100814;27;45475;-56
2021/10/14 04:15:31;;;;;;;;;38.75;33.25;;;;;10.69;50.81;102316.84;5100877;27;45542;-53
2021/10/14 04:17:56;;;;;;;;;41.75;35.00;;;;;10.66;50.92;102312.44;5100556;27;45492;-57
2021/10/14 04:20:21;;;;;;;;;38.25;34.50;;;;;10.66;50.87;102322.09;5100789;27;45317;-55
2021/10/14 04:22:47;;;;;;;;;62.75;50.00;;;;;10.63;50.68;102317.69;5100372;27;45366;-54
2021/10/14 04:25:12;;;;;;;;;50.75;40.75;;;;;10.63;50.78;102319.41;5101021;27;45244;-53
2021/10/14 04:27:38;;;;;;;;;30.25;25.25;;;;;10.62;50.90;102325.56;5100721;27;45496;-54
2021/10/14 04:30:05;;;;;;;;;40.25;34.00;;;;;10.59;50.73;102318.53;5100827;27;46281;-53
2021/10/14 04:32:30;;;;;;;;;44.50;37.50;;;;;10.58;50.94;102314.13;5100787;27;45173;-53
2021/10/14 04:34:56;;;;;;;;;41.25;36.00;;;;;10.57;50.94;102322.88;5082462;27;45205;-54
2021/10/14 04:37:21;;;;;;;;;45.00;35.25;;;;;10.56;51.03;102321.09;5100587;27;45253;-55
2021/10/14 04:39:46;;;;;;;;;38.00;35.00;;;;;10.54;51.06;102323.72;5100748;27;45327;-54
2021/10/14 04:42:12;;;;;;;;;41.75;35.00;;;;;10.53;51.04;102321.06;5100544;27;45210;-55
2021/10/14 04:44:37;;;;;;;;;37.75;33.25;;;;;10.48;51.00;102322.78;5100753;27;45224;-54
2021/10/14 04:47:04;;;;;;;;;37.50;34.00;;;;;10.51;51.08;102330.69;5100629;27;45258;-55
2021/10/14 04:49:30;;;;;;;;;38.25;32.75;;;;;10.48;51.15;102321.00;5100581;27;46211;-55
2021/10/14 04:51:56;;;;;;;;;41.50;35.00;;;;;10.48;50.75;102328.03;5081891;27;45327;-55
2021/10/14 04:54:22;;;;;;;;;38.25;34.75;;;;;10.45;50.86;102314.84;5100609;27;45417;-55
2021/10/14 04:56:47;;;;;;;;;37.00;34.25;;;;;10.45;50.83;102323.59;5100472;27;45520;-55
2021/10/14 04:59:12;;;;;;;;;42.75;35.50;;;;;10.43;51.11;102325.34;5081833;27;47207;-54
2021/10/14 05:01:38;;;;;;;;;45.00;36.00;;;;;10.41;51.12;102321.81;5100200;27;45365;-55
2021/10/14 05:04:03;;;;;;;;;40.75;33.75;;;;;10.36;50.93;102321.78;5100603;27;45330;-55
2021/10/14 05:06:29;;;;;;;;;41.50;34.00;;;;;10.39;51.18;102328.81;5099987;27;45500;-54
2021/10/14 05:08:54;;;;;;;;;39.00;35.25;;;;;10.35;51.06;102321.69;5099949;27;46545;-55
2021/10/14 05:11:19;;;;;;;;;42.25;36.50;;;;;10.35;50.89;102327.84;5100103;27;45186;-55
2021/10/14 05:13:45;;;;;;;;;40.25;35.00;;;;;10.33;50.99;102328.69;5100118;27;45632;-55
2021/10/14 05:16:10;;;;;;;;;41.50;35.00;;;;;10.33;51.19;102334.81;5099882;27;45268;-54
2021/10/14 05:18:36;;;;;;;;;36.00;34.00;;;;;10.32;51.03;102335.69;5100065;27;45442;-54
2021/10/14 05:21:01;;;;;;;;;42.25;36.00;;;;;10.28;51.32;102327.75;5099682;27;45516;-55
2021/10/14 05:23:26;;;;;;;;;42.25;35.50;;;;;10.28;51.11;102333.00;5099906;27;45145;-54
2021/10/14 05:25:52;;;;;;;;;41.25;35.25;;;;;10.26;51.25;102335.59;5081837;27;45391;-54
2021/10/14 05:28:17;;;;;;;;;38.50;35.00;;;;;10.27;51.21;102344.38;5100157;27;45322;-55
2021/10/14 05:30:43;;;;;;;;;43.50;35.75;;;;;10.26;51.34;102338.22;5101889;27;45224;-55
2021/10/14 05:33:08;;;;;;;;;43.25;35.50;;;;;10.24;51.13;102338.22;5103538;27;45267;-53
2021/10/14 05:35:35;;;;;;;;;40.75;35.75;;;;;10.23;51.10;102340.84;5103186;27;45484;-56
2021/10/14 05:38:01;;;;;;;;;38.50;36.00;;;;;10.21;51.25;102329.41;5103455;27;47212;-55
2021/10/14 05:40:27;;;;;;;;;42.75;37.50;;;;;10.21;51.32;102334.66;5103298;27;45339;-57
2021/10/14 05:42:53;;;;;;;;;36.75;34.00;;;;;10.21;51.36;102334.66;5103578;27;45343;-55
2021/10/14 05:45:18;;;;;;;;;43.25;38.25;;;;;10.20;51.37;102327.63;5103291;27;45269;-56
2021/10/14 05:47:43;;;;;;;;;45.50;36.00;;;;;10.19;51.19;102333.78;5103464;27;45328;-55
2021/10/14 05:50:09;;;;;;;;;40.50;36.00;;;;;10.20;51.29;102332.88;5103349;27;45335;-54
2021/10/14 05:52:34;;;;;;;;;48.75;39.50;;;;;10.17;51.49;102327.63;5103197;27;45390;-55
2021/10/14 05:55:00;;;;;;;;;41.50;35.00;;;;;10.17;51.46;102331.09;5071242;28;45488;-56
2021/10/14 05:57:25;;;;;;;;;46.00;38.75;;;;;10.17;51.46;102330.25;5085418;27;47522;-54
2021/10/14 05:59:51;;;;;;;;;41.50;34.50;;;;;10.17;51.58;102325.00;5100324;27;45246;-55
2021/10/14 06:02:16;;;;;;;;;46.00;36.00;;;;;10.19;51.45;102332.03;5096048;27;45453;-53
2021/10/14 06:04:42;;;;;;;;;42.25;35.75;;;;;10.20;51.47;102327.63;5091478;27;45349;-58
2021/10/14 06:07:08;;;;;;;;;42.00;36.00;;;;;10.21;51.43;102324.16;5082485;27;46168;-58
2021/10/14 06:09:33;;;;;;;;;46.25;37.00;;;;;10.19;51.44;102325.91;5082965;27;45252;-58
2021/10/14 06:11:58;;;;;;;;;40.00;35.25;;;;;10.24;51.68;102330.34;5096048;27;45618;-58
2021/10/14 06:14:24;;;;;;;;;44.00;37.00;;;;;10.24;51.63;102332.97;5088090;27;45476;-56
2021/10/14 06:16:49;;;;;;;;;44.25;37.50;;;;;10.27;51.43;102328.63;5083214;27;46100;-58
2021/10/14 06:19:14;;;;;;;;;43.75;36.00;;;;;10.26;51.69;102327.72;5083536;27;45347;-58
2021/10/14 06:21:40;;;;;;;;;47.25;37.75;;;;;10.28;51.76;102326.00;5080841;27;45944;-59
2021/10/14 06:24:05;;;;;;;;;38.75;35.75;;;;;10.29;51.48;102327.78;5089248;27;45307;-57
2021/10/14 06:26:31;;;;;;;;;39.75;34.25;;;;;10.30;51.57;102328.63;5082927;27;45445;-56
2021/10/14 06:28:56;;;;;;;;;39.25;35.50;;;;;10.31;51.48;102331.28;5083087;27;45327;-58
2021/10/14 06:31:21;;;;;;;;;43.50;36.75;;;;;10.33;51.79;102339.22;5067050;28;45343;-58
2021/10/14 06:33:47;;;;;;;;;47.75;36.00;;;;;10.33;51.55;102329.56;5083889;27;45543;-58
2021/10/14 06:36:12;;;;;;;;;48.00;37.75;;;;;10.35;51.76;102335.72;5082378;27;45616;-59
2021/10/14 06:38:37;;;;;;;;;40.25;35.50;;;;;10.37;51.78;102325.25;5083289;27;45302;-58
2021/10/14 06:41:03;;;;;;;;;42.25;35.50;;;;;10.39;51.72;102329.69;5087371;27;45555;-60
2021/10/14 06:43:28;;;;;;;;;49.25;36.00;;;;;10.38;51.61;102327.91;5102130;27;45304;-59
2021/10/14 06:45:53;;;;;;;;;39.25;35.00;;;;;10.41;51.61;102327.06;5102426;27;45363;-58
2021/10/14 06:48:19;;;;;;;;;45.75;37.50;;;;;10.43;51.64;102334.94;5102367;27;45429;-58
2021/10/14 06:50:46;;;;;;;;;42.00;35.75;;;;;10.45;51.92;102333.22;5094950;27;45440;-58
2021/10/14 06:53:13;;;;;;;;;39.50;35.75;;;;;10.44;51.73;102329.75;5084272;27;45217;-58
2021/10/14 06:55:39;;;;;;;;;46.00;38.00;;;;;10.46;51.87;102335.88;5102404;27;47221;-58
2021/10/14 06:58:04;;;;;;;;;44.25;38.50;;;;;10.47;51.78;102331.53;5100357;27;45334;-58
2021/10/14 07:00:30;;;;;;;;;49.00;38.75;;;;;10.48;51.86;102333.28;5102234;27;45357;-58
2021/10/14 07:02:55;;;;;;;;;40.75;36.50;;;;;10.49;51.98;102333.31;5102066;27;45336;-58
2021/10/14 07:05:20;;;;;;;;;43.25;35.75;;;;;10.48;51.73;102330.66;5101816;27;45344;-58
2021/10/14 07:07:46;;;;;;;;;41.25;36.00;;;;;10.49;51.81;102329.78;5090540;27;45359;-58
2021/10/14 07:10:12;;;;;;;;;40.50;36.00;;;;;10.52;51.77;102335.09;5101104;27;45429;-58
2021/10/14 07:12:39;;;;;;;;;42.00;36.75;;;;;10.52;52.00;102327.19;5101817;27;45300;-58
2021/10/14 07:15:06;;;;;;;;;46.00;37.25;;;;;10.52;51.91;102329.81;5101968;27;45927;-58
2021/10/14 07:17:31;;;;;;;;;42.75;37.50;;;;;10.54;51.82;102333.31;5101891;27;45323;-58
2021/10/14 07:19:57;;;;;;;;;47.50;38.50;;;;;10.55;51.79;102335.09;5102070;27;45279;-58
2021/10/14 07:22:22;;;;;;;;;46.75;37.00;;;;;10.56;52.03;102334.25;5065239;27;45209;-58
2021/10/14 07:24:48;;;;;;;;;45.50;38.00;;;;;10.55;52.04;102324.59;5101736;27;46279;-58
2021/10/14 07:27:13;;;;;;;;;43.50;35.50;;;;;10.57;51.82;102325.50;5101595;27;45335;-57
2021/10/14 07:29:39;;;;;;;;;41.50;36.00;;;;;10.59;51.87;102320.25;5101925;27;45508;-59
2021/10/14 07:32:06;;;;;;;;;44.50;35.75;;;;;10.61;52.05;102323.78;5101841;27;45473;-59
2021/10/14 07:34:35;;;;;;;;;41.25;35.00;;;;;10.62;52.11;102328.19;5101588;27;46329;-59
2021/10/14 07:37:01;;;;;;;;;43.50;36.00;;;;;10.63;52.01;102328.19;5101504;27;45299;-59
2021/10/14 07:39:27;;;;;;;;;41.50;35.00;;;;;10.64;52.01;102324.72;5101792;27;45201;-59
2021/10/14 07:41:52;;;;;;;;;39.50;35.25;;;;;10.66;52.10;102327.34;5101360;27;45232;-59
2021/10/14 07:44:17;;;;;;;;;44.00;37.75;;;;;10.66;52.02;102325.59;5083070;27;47732;-59
2021/10/14 07:46:46;;;;;;;;;43.25;37.00;;;;;10.66;52.14;102317.69;5101503;27;45208;-59
2021/10/14 07:49:16;;;;;;;;;42.25;35.50;;;;;10.70;52.23;102327.41;5101672;27;45424;-59
2021/10/14 07:51:41;;;;;;;;;46.50;39.50;;;;;10.71;52.12;102318.63;5101180;27;45405;-59
2021/10/14 07:54:06;;;;;;;;;43.75;36.00;;;;;10.75;52.11;102322.16;5082306;27;47460;-59
2021/10/14 07:56:32;;;;;;;;;44.75;37.50;;;;;10.79;52.17;102324.00;5101315;27;45237;-59
2021/10/14 07:58:58;;;;;;;;;44.50;36.75;;;;;10.81;52.08;102318.75;5101130;27;45239;-59
2021/10/14 08:01:23;;;;;;;;;42.00;36.00;;;;;10.84;52.02;102316.13;5101317;27;45469;-59
2021/10/14 08:03:49;;;;;;;;;44.75;38.00;;;;;10.86;52.15;102319.66;5101057;27;45312;-59
2021/10/14 08:06:15;;;;;;;;;46.75;39.00;;;;;10.91;52.27;102328.47;5101116;27;45388;-59
2021/10/14 08:08:40;;;;;;;;;50.25;39.50;;;;;10.90;52.31;102321.44;5100996;27;45372;-59
2021/10/14 08:11:06;;;;;;;;;47.25;38.00;;;;;10.97;52.33;102331.16;5101236;27;45329;-59
2021/10/14 08:13:32;;;;;;;;;47.00;37.50;;;;;11.03;52.28;102322.44;5100479;27;46090;-59
2021/10/14 08:15:58;;;;;;;;;50.50;41.00;;;;;11.08;52.16;102325.13;5100987;27;45321;-58
2021/10/14 08:18:24;;;;;;;;;49.50;40.00;;;;;11.13;52.18;102326.03;5100881;27;45316;-59
2021/10/14 08:20:50;;;;;;;;;50.00;42.50;;;;;11.18;52.28;102327.84;5082266;27;45504;-59
2021/10/14 08:23:19;;;;;;;;;50.50;42.75;;;;;11.22;52.37;102320.88;5100558;27;46287;-59
2021/10/14 08:25:45;;;;;;;;;48.00;40.25;;;;;11.31;52.40;102326.19;5100898;27;45417;-59
2021/10/14 08:28:10;;;;;;;;;50.25;42.25;;;;;11.37;52.32;102315.72;5100627;27;45715;-59
2021/10/14 08:30:35;;;;;;;;;47.75;40.00;;;;;11.46;52.37;102321.91;5100773;27;45410;-58
2021/10/14 08:33:01;;;;;;;;;44.25;37.75;;;;;11.51;52.27;102321.09;5100476;27;45244;-58
2021/10/14 08:35:26;;;;;;;;;42.00;37.00;;;;;11.57;52.37;102314.09;5100324;27;45313;-58
2021/10/14 08:37:51;;;;;;;;;48.25;39.00;;;;;11.70;52.38;102322.09;5100680;27;45326;-58
2021/10/14 08:40:17;;;;;;;;;46.00;39.00;;;;;11.79;52.32;102318.63;5100626;27;45560;-58
2021/10/14 08:42:43;;;;;;;;;43.50;37.00;;;;;11.89;52.33;102324.84;5100146;27;46414;-58
2021/10/14 08:45:11;;;;;;;;;48.25;36.75;;;;;11.99;52.36;102318.75;5100526;27;45273;-58
2021/10/14 08:47:39;;;;;;;;;47.75;36.50;;;;;12.08;52.28;102325.84;5100597;27;45275;-58
2021/10/14 08:50:07;;;;;;;;;41.00;34.00;;;;;12.19;52.28;102326.75;5100578;27;45516;-58
2021/10/14 08:52:33;;;;;;;;;54.00;44.00;;;;;12.30;52.38;102320.66;5099977;27;46121;-59
2021/10/14 08:54:59;;;;;;;;;39.25;33.50;;;;;12.41;52.22;102316.28;5100476;27;45329;-58
2021/10/14 08:57:25;;;;;;;;;31.00;28.75;;;;;12.53;52.35;102312.84;5100247;27;45433;-59
2021/10/14 08:59:50;;;;;;;;;30.00;29.50;;;;;12.63;52.32;102311.97;5100273;27;45224;-58
2021/10/14 09:02:19;;;;;;;;;31.25;30.25;;;;;12.77;52.23;102317.28;5100172;27;45268;-58
2021/10/14 09:04:47;;;;;;;;;36.75;28.00;;;;;12.91;52.38;102314.66;5100884;27;45357;-58
2021/10/14 09:07:13;;;;;;;;;32.00;27.75;;;;;13.04;52.16;102312.03;5103635;27;45429;-58
2021/10/14 09:09:39;;;;;;;;;31.50;28.00;;;;;13.15;52.23;102311.13;5103980;27;45268;-58
2021/10/14 09:12:10;;;;;;;;;26.00;24.50;;;;;13.30;52.23;102306.75;5103742;27;46240;-58
2021/10/14 09:15:03;;;;;;;;;27.00;26.00;;;;;13.47;51.75;102301.47;5103913;27;45452;-58
2021/10/14 09:17:38;;;;;;;;;21.75;20.00;;;;;13.62;51.95;102311.13;5092019;27;45291;-59
2021/10/14 09:20:25;;;;;;;;;39.00;34.00;;;;;13.78;52.35;102302.28;5103616;27;45449;-58
2021/10/14 09:22:58;;;;;;;;;29.75;25.00;;;;;13.91;51.69;102297.88;5103642;27;47118;-59
2021/10/14 09:25:35;;;;;;;;;26.50;21.50;;;;;14.08;51.88;102296.91;5103837;27;45229;-58
2021/10/14 09:28:16;;;;;;;;;21.75;19.75;;;;;14.21;51.78;102289.81;5103668;27;45371;-58
2021/10/14 09:30:46;;;;;;;;;26.00;25.00;;;;;14.37;51.59;102295.91;5103563;27;45512;-58
2021/10/14 09:33:37;;;;;;;;;21.00;19.50;;;;;14.53;51.65;102294.06;5103463;27;46217;-58
2021/10/14 09:36:16;;;;;;;;;22.00;20.25;;;;;14.67;51.54;102291.38;5084909;27;45217;-58
2021/10/14 09:38:52;;;;;;;;;21.25;18.00;;;;;14.83;51.99;102295.66;5081969;28;45401;-58
2021/10/14 09:41:20;;;;;;;;;19.50;19.50;;;;;14.99;51.75;102287.59;5101486;27;45359;-58
2021/10/14 09:43:51;;;;;;;;;19.00;19.00;;;;;15.15;51.77;102281.25;5103175;27;46119;-58
2021/10/14 09:46:49;;;;;;;;;24.25;22.25;;;;;15.33;51.65;102280.22;5103288;27;45575;-58
2021/10/14 09:49:35;;;;;;;;;18.75;15.75;;;;;15.52;51.43;102285.31;5103350;27;45231;-58
2021/10/14 09:52:01;;;;;;;;;17.75;17.75;;;;;15.69;51.21;102283.38;5102622;27;45555;-58
2021/10/14 09:54:28;;;;;;;;;22.50;19.75;;;;;15.82;50.91;102273.53;5103146;27;46081;-58
2021/10/14 09:56:54;;;;;;;;;26.25;24.25;;;;;16.02;51.21;102280.38;5103236;27;45384;-58
2021/10/14 09:59:19;;;;;;;;;24.50;22.50;;;;;16.15;50.87;102271.38;5102168;27;45280;-58
2021/10/14 10:01:45;;;;;;;;;23.25;21.75;;;;;16.30;50.98;102261.44;5083628;27;45379;-58
2021/10/14 10:04:10;;;;;;;;;21.75;19.00;;;;;16.44;50.87;102262.16;5083658;27;47082;-58
2021/10/14 10:06:38;;;;;;;;;23.25;21.75;;;;;16.59;50.58;102261.03;5101796;27;45317;-58
2021/10/14 10:09:15;;;;;;;;;25.75;23.25;;;;;16.74;50.55;102265.22;5102278;27;45468;-58
2021/10/14 10:11:46;;;;;;;;;22.25;19.50;;;;;16.86;50.20;102259.72;5101848;27;45252;-58
2021/10/14 10:14:13;;;;;;;;;18.00;18.00;;;;;16.99;50.34;102254.22;5101815;27;46121;-58
2021/10/14 10:17:00;;;;;;;;;22.00;18.50;;;;;17.14;49.71;102247.78;5101373;27;45316;-58
2021/10/14 10:19:47;;;;;;;;;17.50;16.00;;;;;17.27;49.72;102249.31;5102004;27;45285;-58
2021/10/14 10:22:34;;;;;;;;;19.00;19.00;;;;;17.40;50.04;102246.44;5101408;27;45257;-58
2021/10/14 10:25:33;;;;;;;;;18.25;15.00;;;;;17.52;49.40;102238.19;5101490;27;46307;-58
2021/10/14 10:27:59;;;;;;;;;16.25;12.00;;;;;17.63;49.36;102230.03;5101465;27;45406;-58
2021/10/14 10:30:39;;;;;;;;;20.50;15.25;;;;;17.72;49.16;102232.47;5101693;27;45319;-58
2021/10/14 10:33:07;;;;;;;;;14.50;11.50;;;;;17.84;49.32;102226.06;5101593;27;45343;-58
2021/10/14 10:35:39;;;;;;;;;57.00;46.25;;;;;17.95;48.98;102223.19;5101119;27;46062;-58
2021/10/14 10:38:18;;;;;;;;;11.25;8.00;;;;;18.06;49.13;102218.50;5101526;27;45294;-58
2021/10/14 10:40:45;;;;;;;;;11.50;8.00;;;;;18.19;48.91;102219.13;5101403;27;45391;-58
2021/10/14 10:43:31;;;;;;;;;7.00;7.00;;;;;18.32;49.14;102214.38;5101241;27;45268;-58
2021/10/14 10:46:04;;;;;;;;;5.75;5.75;;;;;18.43;48.69;102212.34;5100587;27;45669;-58
2021/10/14 10:48:39;;;;;;;;;11.00;8.50;;;;;18.57;48.69;102216.47;5101399;27;45273;-58
2021/10/14 10:51:06;;;;;;;;;7.75;6.00;;;;;18.66;48.88;102213.56;5101178;27;45266;-58
2021/10/14 10:53:45;;;;;;;;;5.75;5.00;;;;;18.76;48.13;102214.22;5101212;27;45172;-58
2021/10/14 10:56:31;;;;;;;;;8.75;6.75;;;;;18.90;48.10;102205.88;5101136;27;46271;-58
2021/10/14 10:58:57;;;;;;;;;5.75;5.00;;;;;18.99;48.55;102211.88;5032686;27;1924696;-57
2021/10/14 11:01:23;;;;;;;;;7.00;7.00;;;;;19.12;48.37;102209.75;5102393;27;45334;-58
2021/10/14 11:04:03;;;;;;;;;4.50;4.00;;;;;19.25;48.03;102204.09;5102276;27;45402;-58
2021/10/14 11:06:30;;;;;;;;;8.00;7.00;;;;;19.38;47.85;102199.28;5102019;27;46889;-58
2021/10/14 11:09:10;;;;;;;;;15.25;15.25;;;;;19.52;48.24;102191.78;5102053;27;45333;-58